createdAt,value
2022-08-17T00:00:34.281Z,12.13
2022-08-17T00:03:09.056Z,12.15
2022-08-17T00:05:44.547Z,12.00
2022-08-17T00:08:15.580Z,12.10
2022-08-17T00:10:45.360Z,13.13
2022-08-17T00:13:15.974Z,12.95
2022-08-17T00:15:44.963Z,12.95
2022-08-17T00:19:01.411Z,12.27
2022-08-17T00:21:02.987Z,12.82
2022-08-17T00:23:33.030Z,11.88
2022-08-17T00:26:01.106Z,12.85
2022-08-17T00:28:29.374Z,13.50
2022-08-17T00:31:01.243Z,12.20
2022-08-17T00:33:32.986Z,12.35
2022-08-17T00:36:02.014Z,12.90
2022-08-17T00:38:30.896Z,13.52
2022-08-17T00:41:03.612Z,13.00
2022-08-17T00:43:36.029Z,13.00
2022-08-17T00:46:08.222Z,13.98
2022-08-17T00:48:36.841Z,13.13
2022-08-17T00:51:10.848Z,13.98
2022-08-17T00:53:41.993Z,12.93
2022-08-17T00:56:16.103Z,13.20
2022-08-17T00:58:44.314Z,14.32
2022-08-17T01:01:21.820Z,13.60
2022-08-17T01:03:52.284Z,13.43
2022-08-17T01:06:22.149Z,14.02
2022-08-17T01:08:57.753Z,13.95
2022-08-17T01:11:28.358Z,14.82
2022-08-17T01:13:56.361Z,14.63
2022-08-17T01:16:27.001Z,14.85
2022-08-17T01:18:58.333Z,15.00
2022-08-17T01:21:33.800Z,14.40
2022-08-17T01:24:04.681Z,14.95
2022-08-17T01:26:34.314Z,14.38
2022-08-17T01:29:04.146Z,14.10
2022-08-17T01:31:36.367Z,14.88
2022-08-17T01:34:08.327Z,15.93
2022-08-17T01:36:37.144Z,14.38
2022-08-17T01:39:10.873Z,15.23
2022-08-17T01:41:41.545Z,15.70
2022-08-17T01:44:10.793Z,15.50
2022-08-17T01:46:39.042Z,15.50
2022-08-17T01:49:09.108Z,15.75
2022-08-17T01:51:37.337Z,15.43
2022-08-17T01:54:11.626Z,15.95
2022-08-17T01:56:42.882Z,15.20
2022-08-17T01:59:10.819Z,16.02
2022-08-17T02:01:39.117Z,15.52
2022-08-17T02:04:08.459Z,16.15
2022-08-17T02:06:52.661Z,15.85
2022-08-17T02:09:25.333Z,16.33
2022-08-17T02:11:54.819Z,16.77
2022-08-17T02:14:25.292Z,16.85
2022-08-17T02:16:53.384Z,16.38
2022-08-17T02:19:22.081Z,17.02
2022-08-17T02:21:52.957Z,17.40
2022-08-17T02:24:58.499Z,16.83
2022-08-17T02:27:16.651Z,16.85
2022-08-17T02:29:44.641Z,16.70
2022-08-17T02:32:22.275Z,17.73
2022-08-17T02:34:55.728Z,17.77
2022-08-17T02:37:23.821Z,18.02
2022-08-17T02:39:53.351Z,18.55
2022-08-17T02:42:27.878Z,18.48
2022-08-17T02:44:55.922Z,19.30
2022-08-17T02:47:24.635Z,17.70
2022-08-17T02:49:54.287Z,18.80
2022-08-17T02:52:42.473Z,19.27
2022-08-17T02:55:16.310Z,19.27
2022-08-17T02:57:44.270Z,19.08
2022-08-17T03:00:15.590Z,19.08
2022-08-17T03:02:45.414Z,18.35
2022-08-17T03:05:16.294Z,18.92
2022-08-17T03:07:44.352Z,20.58
2022-08-17T03:10:14.422Z,19.50
2022-08-17T03:12:43.788Z,19.73
2022-08-17T03:15:14.050Z,21.05
2022-08-17T03:17:42.401Z,20.92
2022-08-17T03:20:11.407Z,22.25
2022-08-17T03:22:41.346Z,21.90
2022-08-17T03:25:20.170Z,21.67
2022-08-17T03:27:51.516Z,21.33
2022-08-17T03:30:22.511Z,22.25
2022-08-17T03:32:56.216Z,23.02
2022-08-17T03:35:26.630Z,21.70
2022-08-17T03:38:00.062Z,21.63
2022-08-17T03:40:43.780Z,21.33
2022-08-17T03:43:20.071Z,21.48
2022-08-17T03:46:23.997Z,23.63
2022-08-17T03:49:12.046Z,23.80
2022-08-17T03:51:57.647Z,22.05
2022-08-17T03:54:42.964Z,23.00
2022-08-17T03:57:13.523Z,23.08
2022-08-17T03:59:42.003Z,24.90
2022-08-17T04:02:13.526Z,23.17
2022-08-17T04:04:41.786Z,23.55
2022-08-17T04:07:09.705Z,22.65
2022-08-17T04:09:38.023Z,23.30
2022-08-17T04:12:07.231Z,24.17
2022-08-17T04:14:51.637Z,22.65
2022-08-17T04:17:22.580Z,23.60
2022-08-17T04:19:50.498Z,24.73
2022-08-17T04:22:32.049Z,24.35
2022-08-17T04:25:09.013Z,24.30
2022-08-17T04:27:37.514Z,25.25
2022-08-17T04:30:08.425Z,24.13
2022-08-17T04:33:09.852Z,22.77
2022-08-17T04:35:39.978Z,24.63
2022-08-17T04:38:12.276Z,23.80
2022-08-17T04:40:58.270Z,23.58
2022-08-17T04:43:28.304Z,24.55
2022-08-17T04:46:00.265Z,24.38
2022-08-17T04:48:36.233Z,24.95
2022-08-17T04:51:08.015Z,24.08
2022-08-17T04:53:36.517Z,24.38
2022-08-17T04:56:05.315Z,24.75
2022-08-17T04:58:33.758Z,24.25
2022-08-17T05:01:03.432Z,24.10
2022-08-17T05:03:32.612Z,23.23
2022-08-17T05:06:00.680Z,23.52
2022-08-17T05:08:28.693Z,24.00
2022-08-17T05:10:56.873Z,23.98
2022-08-17T05:13:26.357Z,24.83
2022-08-17T05:15:57.163Z,24.67
2022-08-17T05:18:26.677Z,24.05
2022-08-17T05:20:55.048Z,23.95
2022-08-17T05:23:25.135Z,23.35
2022-08-17T05:25:56.390Z,23.92
2022-08-17T05:28:28.000Z,24.83
2022-08-17T05:30:59.374Z,23.02
2022-08-17T05:33:31.442Z,24.15
2022-08-17T05:36:00.887Z,24.50
2022-08-17T05:38:30.735Z,26.02
2022-08-17T05:40:59.797Z,25.45
2022-08-17T05:43:30.116Z,24.48
2022-08-17T05:46:05.384Z,24.70
2022-08-17T05:48:40.170Z,24.83
2022-08-17T05:51:22.089Z,24.65
2022-08-17T05:53:59.661Z,24.70
2022-08-17T05:56:50.233Z,24.58
2022-08-17T05:59:27.812Z,24.60
2022-08-17T06:02:04.189Z,24.08
2022-08-17T06:04:45.378Z,22.70
2022-08-17T06:07:22.806Z,22.75
2022-08-17T06:09:58.694Z,22.58
2022-08-17T06:12:38.690Z,21.67
2022-08-17T06:15:24.654Z,20.50
2022-08-17T06:17:55.847Z,20.35
2022-08-17T06:20:28.314Z,20.30
2022-08-17T06:23:03.885Z,19.70
2022-08-17T06:25:36.015Z,20.05
2022-08-17T06:28:07.288Z,19.42
2022-08-17T06:30:59.944Z,18.52
2022-08-17T06:33:34.418Z,18.88
2022-08-17T06:36:10.246Z,19.95
2022-08-17T06:38:52.110Z,18.77
2022-08-17T06:41:27.616Z,17.77
2022-08-17T06:44:07.665Z,17.42
2022-08-17T06:46:39.329Z,16.10
2022-08-17T06:49:17.881Z,16.98
2022-08-17T06:51:52.586Z,16.85
2022-08-17T06:54:30.070Z,16.65
2022-08-17T06:57:01.801Z,16.77
2022-08-17T06:59:55.018Z,17.30
2022-08-17T07:02:52.431Z,16.33
2022-08-17T07:05:24.874Z,17.17
2022-08-17T07:08:05.204Z,16.40
2022-08-17T07:10:39.647Z,16.30
2022-08-17T07:13:30.703Z,16.55
2022-08-17T07:16:14.826Z,16.90
2022-08-17T07:18:43.780Z,16.92
2022-08-17T07:21:26.534Z,16.13
2022-08-17T07:24:08.065Z,16.50
2022-08-17T07:26:36.004Z,15.02
2022-08-17T07:29:04.029Z,15.40
2022-08-17T07:31:33.660Z,14.68
2022-08-17T07:34:08.525Z,13.00
2022-08-17T07:36:36.449Z,15.18
2022-08-17T07:39:06.168Z,15.70
2022-08-17T07:41:57.895Z,13.63
2022-08-17T07:44:27.677Z,14.45
2022-08-17T07:47:14.621Z,14.15
2022-08-17T07:49:46.107Z,14.48
2022-08-17T07:52:48.063Z,14.48
2022-08-17T07:55:29.619Z,14.85
2022-08-17T07:57:59.089Z,13.65
2022-08-17T08:00:32.648Z,14.38
2022-08-17T08:03:16.101Z,13.65
2022-08-17T08:05:56.398Z,13.85
2022-08-17T08:08:29.299Z,14.63
2022-08-17T08:11:07.145Z,14.70
2022-08-17T08:13:42.536Z,13.00
2022-08-17T08:16:22.611Z,12.27
2022-08-17T08:18:57.570Z,13.07
2022-08-17T08:21:34.511Z,12.93
2022-08-17T08:24:19.913Z,12.90
2022-08-17T08:26:58.050Z,12.85
2022-08-17T08:29:35.745Z,12.88
2022-08-17T08:32:11.373Z,11.98
2022-08-17T08:35:01.525Z,11.60
2022-08-17T08:37:43.007Z,11.95
2022-08-17T08:40:29.952Z,11.77
2022-08-17T08:43:09.357Z,12.10
2022-08-17T08:45:47.133Z,12.02
2022-08-17T08:48:58.303Z,11.82
2022-08-17T08:51:39.866Z,10.88
2022-08-17T08:54:20.240Z,11.35
2022-08-17T08:57:23.173Z,11.80
2022-08-17T09:00:05.443Z,12.10
2022-08-17T09:02:57.715Z,11.70
2022-08-17T09:05:39.328Z,10.63
2022-08-17T09:08:31.989Z,10.93
2022-08-17T09:11:06.055Z,11.23
2022-08-17T09:13:44.398Z,11.60
2022-08-17T09:16:20.228Z,11.63
2022-08-17T09:19:03.265Z,11.90
2022-08-17T09:21:48.468Z,10.73
2022-08-17T09:24:24.253Z,11.23
2022-08-17T09:27:00.005Z,12.13
2022-08-17T09:29:32.550Z,11.15
2022-08-17T09:32:03.902Z,10.70
2022-08-17T09:34:36.502Z,11.20
2022-08-17T09:37:18.969Z,10.40
2022-08-17T09:39:56.591Z,10.70
2022-08-17T09:42:31.115Z,11.02
2022-08-17T09:45:08.687Z,11.20
2022-08-17T09:47:45.519Z,10.52
2022-08-17T09:51:05.262Z,11.18
2022-08-17T09:53:10.287Z,10.27
2022-08-17T09:56:04.281Z,11.13
2022-08-17T09:58:47.651Z,9.90
2022-08-17T10:01:31.591Z,10.02
2022-08-17T10:04:29.290Z,9.73
2022-08-17T10:07:06.774Z,8.48
2022-08-17T10:09:45.672Z,8.70
2022-08-17T10:12:29.988Z,8.13
2022-08-17T10:15:17.440Z,7.88
2022-08-17T10:17:59.916Z,8.10
2022-08-17T10:20:34.211Z,7.65
2022-08-17T10:23:25.030Z,7.70
2022-08-17T10:26:16.948Z,8.00
2022-08-17T10:28:51.187Z,7.22
2022-08-17T10:31:36.229Z,6.18
2022-08-17T10:34:27.235Z,6.10
2022-08-17T10:37:07.566Z,6.60
2022-08-17T10:39:51.913Z,5.60
2022-08-17T10:42:30.287Z,5.85
2022-08-17T10:45:06.544Z,6.28
2022-08-17T10:48:04.291Z,6.68
2022-08-17T10:51:08.940Z,6.25
2022-08-17T10:53:58.862Z,7.18
2022-08-17T10:56:45.214Z,7.90
2022-08-17T10:59:55.418Z,6.68
2022-08-17T11:02:31.612Z,6.93
2022-08-17T11:05:15.806Z,6.97
2022-08-17T11:08:05.619Z,6.28
2022-08-17T11:10:52.342Z,6.50
2022-08-17T11:13:33.774Z,6.63
2022-08-17T11:16:18.593Z,6.38
2022-08-17T11:19:10.294Z,6.50
2022-08-17T11:22:00.949Z,6.18
2022-08-17T11:24:37.052Z,5.85
2022-08-17T11:27:12.110Z,5.97
2022-08-17T11:29:58.087Z,6.03
2022-08-17T11:32:37.691Z,5.95
2022-08-17T11:35:22.593Z,6.13
2022-08-17T11:38:02.878Z,5.97
2022-08-17T11:41:04.406Z,5.68
2022-08-17T11:44:16.558Z,5.47
2022-08-17T11:47:16.775Z,4.60
2022-08-17T11:50:21.632Z,4.80
2022-08-17T11:52:52.691Z,5.10
2022-08-17T11:55:54.026Z,5.55
2022-08-17T11:58:40.087Z,5.18
2022-08-17T12:01:09.672Z,5.30
2022-08-17T12:03:55.642Z,5.13
2022-08-17T12:06:54.833Z,5.68
2022-08-17T12:09:26.416Z,5.22
2022-08-17T12:12:13.374Z,5.47
2022-08-17T12:17:40.939Z,5.63
2022-08-17T12:20:15.276Z,5.78
2022-08-17T12:22:54.818Z,5.43
2022-08-17T12:25:33.253Z,4.95
2022-08-17T12:28:06.030Z,5.45
2022-08-17T12:30:36.581Z,5.32
2022-08-17T12:33:04.660Z,5.50
2022-08-17T12:35:35.170Z,5.32
2022-08-17T12:38:32.164Z,5.05
2022-08-17T12:40:59.618Z,5.38
2022-08-17T12:43:33.007Z,5.15
2022-08-17T12:46:12.956Z,5.47
2022-08-17T12:48:59.954Z,5.85
2022-08-17T12:51:29.994Z,5.57
2022-08-17T12:53:59.628Z,5.20
2022-08-17T12:56:27.452Z,5.78
2022-08-17T12:58:55.602Z,6.00
2022-08-17T13:01:26.105Z,6.43
2022-08-17T13:03:59.734Z,6.18
2022-08-17T13:06:31.595Z,6.13
2022-08-17T13:09:10.740Z,6.20
2022-08-17T13:11:48.107Z,6.80
2022-08-17T13:14:18.406Z,6.80
2022-08-17T13:16:53.677Z,7.13
2022-08-17T13:19:32.958Z,6.40
2022-08-17T13:22:12.484Z,6.10
2022-08-17T13:24:53.221Z,6.07
2022-08-17T13:27:23.627Z,5.35
2022-08-17T13:29:55.805Z,5.32
2022-08-17T13:32:35.112Z,5.80
2022-08-17T13:35:28.372Z,5.40
2022-08-17T13:38:02.488Z,5.30
2022-08-17T13:40:37.704Z,5.45
2022-08-17T13:43:06.335Z,5.95
2022-08-17T13:45:50.639Z,5.93
2022-08-17T13:48:28.393Z,6.20
2022-08-17T13:51:15.232Z,6.28
2022-08-17T13:54:02.246Z,6.97
2022-08-17T13:56:52.817Z,5.70
2022-08-17T13:59:52.748Z,5.60
2022-08-17T14:02:20.524Z,5.75
2022-08-17T14:04:49.390Z,6.40
2022-08-17T14:07:29.470Z,6.28
2022-08-17T14:10:01.371Z,5.95
2022-08-17T14:12:34.278Z,5.97
2022-08-17T14:15:03.170Z,6.13
2022-08-17T14:17:37.954Z,6.00
2022-08-17T14:20:09.369Z,5.22
2022-08-17T14:22:39.825Z,5.43
2022-08-17T14:25:10.616Z,5.55
2022-08-17T14:27:47.121Z,5.65
2022-08-17T14:30:23.958Z,5.50
2022-08-17T14:32:52.876Z,5.40
2022-08-17T14:35:23.250Z,5.85
2022-08-17T14:37:51.561Z,5.40
2022-08-17T14:40:25.160Z,5.00
2022-08-17T14:42:56.025Z,5.82
2022-08-17T14:45:32.892Z,6.10
2022-08-17T14:48:04.062Z,5.53
2022-08-17T14:50:35.457Z,5.47
2022-08-17T14:53:04.616Z,5.80
2022-08-17T14:55:32.843Z,5.50
2022-08-17T14:58:04.005Z,5.80
2022-08-17T15:00:32.116Z,5.97
2022-08-17T15:03:01.636Z,5.97
2022-08-17T15:05:35.130Z,5.60
2022-08-17T15:08:04.605Z,5.78
2022-08-17T15:10:33.015Z,5.82
2022-08-17T15:13:02.487Z,6.00
2022-08-17T15:15:31.302Z,6.00
2022-08-17T15:17:59.871Z,6.30
2022-08-17T15:20:30.037Z,5.80
2022-08-17T15:22:59.337Z,5.90
2022-08-17T15:25:29.527Z,6.43
2022-08-17T15:27:57.554Z,6.03
2022-08-17T15:30:27.416Z,5.85
2022-08-17T15:32:55.847Z,5.93
2022-08-17T15:35:27.784Z,6.43
2022-08-17T15:37:57.991Z,5.47
2022-08-17T15:40:26.256Z,5.32
2022-08-17T15:42:54.268Z,5.25
2022-08-17T15:45:24.838Z,5.50
2022-08-17T15:47:54.351Z,5.32
2022-08-17T15:50:22.480Z,6.32
2022-08-17T15:52:58.116Z,5.57
2022-08-17T15:55:27.993Z,5.47
2022-08-17T15:57:56.051Z,6.80
2022-08-17T16:00:24.908Z,5.38
2022-08-17T16:03:44.716Z,5.80
2022-08-17T16:05:42.681Z,8.50
2022-08-17T16:08:11.095Z,5.88
2022-08-17T16:10:39.186Z,5.70
2022-08-17T16:13:17.826Z,5.28
2022-08-17T16:15:56.622Z,5.43
2022-08-17T16:18:31.093Z,5.28
2022-08-17T16:21:21.481Z,5.40
2022-08-17T16:23:51.499Z,5.40
2022-08-17T16:26:19.882Z,5.63
2022-08-17T16:28:47.811Z,5.25
2022-08-17T16:31:16.755Z,5.30
2022-08-17T16:34:15.530Z,5.65
2022-08-17T16:36:35.919Z,5.40
2022-08-17T16:39:04.735Z,6.07
2022-08-17T16:41:45.310Z,5.72
2022-08-17T16:44:15.552Z,5.80
2022-08-17T16:46:45.408Z,6.22
2022-08-17T16:49:35.509Z,6.63
2022-08-17T16:52:05.819Z,6.07
2022-08-17T16:54:35.759Z,6.00
2022-08-17T16:57:05.238Z,6.60
2022-08-17T16:59:42.162Z,6.30
2022-08-17T17:02:13.891Z,6.40
2022-08-17T17:04:53.340Z,5.90
2022-08-17T17:07:39.391Z,5.88
2022-08-17T17:10:11.885Z,6.10
2022-08-17T17:13:02.899Z,6.43
2022-08-17T17:15:38.229Z,6.18
2022-08-17T17:18:07.855Z,6.93
2022-08-17T17:20:45.783Z,7.00
2022-08-17T17:23:28.869Z,6.40
2022-08-17T17:26:04.073Z,6.80
2022-08-17T17:28:44.320Z,6.05
2022-08-17T17:31:15.639Z,6.22
2022-08-17T17:33:48.380Z,6.60
2022-08-17T17:36:25.533Z,6.53
2022-08-17T17:38:57.495Z,6.63
2022-08-17T17:41:35.267Z,6.40
2022-08-17T17:44:07.981Z,6.03
2022-08-17T17:46:39.368Z,6.30
2022-08-17T17:49:10.256Z,6.63
2022-08-17T17:52:07.900Z,5.72
2022-08-17T17:54:54.089Z,6.40
2022-08-17T17:57:30.329Z,6.45
2022-08-17T18:00:08.263Z,6.63
2022-08-17T18:02:52.232Z,6.22
2022-08-17T18:05:41.710Z,6.18
2022-08-17T18:08:52.873Z,6.43
2022-08-17T18:11:35.160Z,6.43
2022-08-17T18:14:15.426Z,6.22
2022-08-17T18:16:44.116Z,6.35
2022-08-17T18:19:15.157Z,6.07
2022-08-17T18:21:47.028Z,6.80
2022-08-17T18:24:17.264Z,6.70
2022-08-17T18:26:55.092Z,6.97
2022-08-17T18:29:45.432Z,7.25
2022-08-17T18:32:37.844Z,7.38
2022-08-17T18:35:30.138Z,8.88
2022-08-17T18:38:20.337Z,9.40
2022-08-17T18:41:00.264Z,9.73
2022-08-17T18:43:43.835Z,9.90
2022-08-17T18:46:30.407Z,10.05
2022-08-17T18:49:01.142Z,10.23
2022-08-17T18:51:40.804Z,9.45
2022-08-17T18:54:22.895Z,10.38
2022-08-17T18:56:54.842Z,10.63
2022-08-17T18:59:28.977Z,10.05
2022-08-17T19:02:36.102Z,10.38
2022-08-17T19:05:13.591Z,10.48
2022-08-17T19:07:44.218Z,11.13
2022-08-17T19:10:19.410Z,11.35
2022-08-17T19:12:52.806Z,11.07
2022-08-17T19:15:28.400Z,10.80
2022-08-17T19:18:01.777Z,10.90
2022-08-17T19:20:33.947Z,11.82
2022-08-17T19:23:08.018Z,11.63
2022-08-17T19:25:39.820Z,12.20
2022-08-17T19:28:22.321Z,10.88
2022-08-17T19:30:55.869Z,11.63
2022-08-17T19:33:24.161Z,11.57
2022-08-17T19:36:03.137Z,11.82
2022-08-17T19:38:50.238Z,12.18
2022-08-17T19:41:26.257Z,11.52
2022-08-17T19:44:09.568Z,11.73
2022-08-17T19:46:48.617Z,12.23
2022-08-17T19:49:32.932Z,12.23
2022-08-17T19:52:16.796Z,13.00
2022-08-17T19:54:52.421Z,13.13
2022-08-17T19:57:29.251Z,12.90
2022-08-17T20:00:03.371Z,13.02
2022-08-17T20:02:37.810Z,12.30
2022-08-17T20:05:12.627Z,12.20
2022-08-17T20:07:46.553Z,12.95
2022-08-17T20:10:21.588Z,12.90
2022-08-17T20:12:53.381Z,13.77
2022-08-17T20:15:28.400Z,12.82
2022-08-17T20:18:01.010Z,13.07
2022-08-17T20:20:35.920Z,13.15
2022-08-17T20:23:11.666Z,13.80
2022-08-17T20:25:47.241Z,13.68
2022-08-17T20:28:24.092Z,13.48
2022-08-17T20:30:53.676Z,13.55
2022-08-17T20:33:27.586Z,12.90
2022-08-17T20:36:13.108Z,13.45
2022-08-17T20:38:44.612Z,12.40
2022-08-17T20:41:16.631Z,13.50
2022-08-17T20:43:51.211Z,12.85
2022-08-17T20:46:45.016Z,13.52
2022-08-17T20:49:24.291Z,13.63
2022-08-17T20:52:01.538Z,14.63
2022-08-17T20:54:49.660Z,14.75
2022-08-17T20:57:48.904Z,13.85
2022-08-17T21:00:51.332Z,14.55
2022-08-17T21:03:51.085Z,14.02
2022-08-17T21:06:22.827Z,14.00
2022-08-17T21:08:57.995Z,14.57
2022-08-17T21:12:03.289Z,14.48
2022-08-17T21:14:45.738Z,14.68
2022-08-17T21:17:31.252Z,14.70
2022-08-17T21:20:11.975Z,13.48
2022-08-17T21:22:53.301Z,13.70
2022-08-17T21:25:48.222Z,13.70
2022-08-17T21:28:30.112Z,13.75
2022-08-17T21:31:09.230Z,14.18
2022-08-17T21:33:39.132Z,12.82
2022-08-17T21:36:26.141Z,13.32
2022-08-17T21:39:01.543Z,12.52
2022-08-17T21:41:33.443Z,13.10
2022-08-17T21:44:07.528Z,12.73
2022-08-17T21:46:39.740Z,12.75
2022-08-17T21:49:13.514Z,12.95
2022-08-17T21:51:46.490Z,12.10
2022-08-17T21:54:34.805Z,13.10
2022-08-17T21:57:05.594Z,11.95
2022-08-17T21:59:36.675Z,12.07
2022-08-17T22:02:08.926Z,13.27
2022-08-17T22:04:38.871Z,12.75
2022-08-17T22:07:10.943Z,12.60
2022-08-17T22:09:43.577Z,12.70
2022-08-17T22:12:13.702Z,12.10
2022-08-17T22:14:52.466Z,11.60
2022-08-17T22:17:25.360Z,12.40
2022-08-17T22:19:56.419Z,12.38
2022-08-17T22:22:35.208Z,12.60
2022-08-17T22:25:08.056Z,12.65
2022-08-17T22:27:50.675Z,13.43
2022-08-17T22:30:31.733Z,13.48
2022-08-17T22:33:00.647Z,12.90
2022-08-17T22:35:40.933Z,13.15
2022-08-17T22:38:33.333Z,12.80
2022-08-17T22:41:18.075Z,14.07
2022-08-17T22:43:46.264Z,13.40
2022-08-17T22:46:15.004Z,13.73
2022-08-17T22:48:48.925Z,12.68
2022-08-17T22:51:21.645Z,12.38
2022-08-17T22:54:11.504Z,11.98
2022-08-17T22:57:05.466Z,13.82
2022-08-17T22:59:39.266Z,13.40
2022-08-17T23:02:15.143Z,13.52
2022-08-17T23:04:45.658Z,13.10
2022-08-17T23:07:13.576Z,12.93
2022-08-17T23:09:42.983Z,13.13
2022-08-17T23:12:15.003Z,12.75
2022-08-17T23:14:46.006Z,12.70
2022-08-17T23:17:14.458Z,13.30
2022-08-17T23:19:42.869Z,12.65
2022-08-17T23:22:12.440Z,14.68
2022-08-17T23:24:45.322Z,14.55
2022-08-17T23:27:14.153Z,14.63
2022-08-17T23:29:42.497Z,14.80
2022-08-17T23:32:13.951Z,14.73
2022-08-17T23:34:44.319Z,13.93
2022-08-17T23:37:13.198Z,13.80
2022-08-17T23:39:45.151Z,14.45
2022-08-17T23:42:16.516Z,14.93
2022-08-17T23:44:44.775Z,14.68
2022-08-17T23:47:13.106Z,14.55
2022-08-17T23:49:41.385Z,15.18
2022-08-17T23:52:12.683Z,15.43
2022-08-17T23:54:47.674Z,15.43
2022-08-17T23:57:17.780Z,15.52
2022-08-17T23:59:48.874Z,16.90
